createdAt,value
2018-06-05T00:00:10.653Z,7.47
2018-06-05T00:02:39.836Z,7.27
2018-06-05T00:05:09.053Z,8.97
2018-06-05T00:07:38.237Z,7.90
2018-06-05T00:10:07.701Z,12.60
2018-06-05T00:12:36.769Z,10.60
2018-06-05T00:15:05.830Z,10.17
2018-06-05T00:17:35.051Z,8.77
2018-06-05T00:20:04.353Z,11.73
2018-06-05T00:22:33.563Z,9.77
2018-06-05T00:25:02.723Z,11.97
2018-06-05T00:27:31.975Z,10.73
2018-06-05T00:30:01.130Z,12.80
2018-06-05T00:32:30.205Z,13.17
2018-06-05T00:34:59.553Z,11.80
2018-06-05T00:37:28.701Z,9.93
2018-06-05T00:39:58.077Z,8.50
2018-06-05T00:42:27.245Z,7.57
2018-06-05T00:44:56.513Z,7.70
2018-06-05T00:47:25.721Z,7.60
2018-06-05T00:49:54.459Z,8.60
2018-06-05T00:52:23.157Z,8.57
2018-06-05T00:54:51.881Z,9.13
2018-06-05T00:57:20.638Z,13.73
2018-06-05T00:59:49.448Z,15.03
2018-06-05T01:02:18.168Z,13.20
2018-06-05T01:04:46.898Z,10.17
2018-06-05T01:07:15.580Z,10.90
2018-06-05T01:09:44.265Z,10.10
2018-06-05T01:12:13.013Z,10.00
2018-06-05T01:14:41.709Z,9.13
2018-06-05T01:17:10.416Z,9.77
2018-06-05T01:19:39.171Z,8.00
2018-06-05T01:22:08.067Z,9.60
2018-06-05T01:24:36.846Z,11.50
2018-06-05T01:27:05.686Z,12.03
2018-06-05T01:29:34.412Z,8.50
2018-06-05T01:32:03.143Z,7.83
2018-06-05T01:34:31.890Z,8.23
2018-06-05T01:37:01.457Z,7.37
2018-06-05T01:39:30.170Z,8.03
2018-06-05T01:41:59.234Z,7.90
2018-06-05T01:44:28.445Z,8.30
2018-06-05T01:46:57.497Z,7.80
2018-06-05T01:49:30.325Z,6.73
2018-06-05T01:51:59.642Z,7.50
2018-06-05T01:54:28.838Z,8.07
2018-06-05T01:56:58.052Z,8.80
2018-06-05T01:59:27.350Z,9.90
2018-06-05T02:01:56.546Z,9.37
2018-06-05T02:04:36.242Z,10.47
2018-06-05T02:07:05.406Z,8.70
2018-06-05T02:09:34.382Z,7.83
2018-06-05T02:12:03.165Z,9.23
2018-06-05T02:14:31.855Z,10.13
2018-06-05T02:17:00.600Z,10.70
2018-06-05T02:19:29.368Z,9.57
2018-06-05T02:21:58.062Z,10.23
2018-06-05T02:24:26.766Z,9.70
2018-06-05T02:26:55.507Z,9.20
2018-06-05T02:29:24.214Z,14.43
2018-06-05T02:31:52.901Z,11.80
2018-06-05T02:34:21.640Z,11.30
2018-06-05T02:36:50.485Z,9.33
2018-06-05T02:39:19.171Z,9.70
2018-06-05T02:41:47.923Z,9.97
2018-06-05T02:44:16.613Z,8.30
2018-06-05T02:46:45.313Z,9.10
2018-06-05T02:49:14.061Z,9.97
2018-06-05T02:51:42.774Z,9.60
2018-06-05T02:54:11.481Z,9.20
2018-06-05T02:56:40.297Z,9.80
2018-06-05T02:59:09.001Z,8.60
2018-06-05T03:01:37.714Z,10.97
2018-06-05T03:04:06.678Z,9.70
2018-06-05T03:06:35.380Z,10.87
2018-06-05T03:09:04.249Z,11.53
2018-06-05T03:11:32.978Z,9.13
2018-06-05T03:14:01.657Z,7.70
2018-06-05T03:16:30.354Z,10.30
2018-06-05T03:18:59.391Z,8.80
2018-06-05T03:21:28.205Z,9.70
2018-06-05T03:23:56.911Z,8.30
2018-06-05T03:26:25.665Z,8.73
2018-06-05T03:28:54.397Z,10.67
2018-06-05T03:31:23.232Z,9.40
2018-06-05T03:33:51.976Z,9.37
2018-06-05T03:36:20.682Z,6.93
2018-06-05T03:38:49.381Z,7.93
2018-06-05T03:41:18.105Z,7.70
2018-06-05T03:43:46.798Z,6.03
2018-06-05T03:46:15.497Z,6.10
2018-06-05T03:48:44.240Z,8.50
2018-06-05T03:51:13.001Z,5.33
2018-06-05T03:53:41.993Z,4.50
2018-06-05T03:56:10.761Z,5.03
2018-06-05T03:58:39.461Z,5.10
2018-06-05T04:01:08.169Z,6.40
2018-06-05T04:03:37.015Z,6.77
2018-06-05T04:06:05.862Z,6.67
2018-06-05T04:08:34.581Z,5.10
2018-06-05T04:11:03.326Z,7.10
2018-06-05T04:13:32.157Z,6.87
2018-06-05T04:16:00.865Z,6.20
2018-06-05T04:18:29.788Z,5.47
2018-06-05T04:20:58.494Z,5.50
2018-06-05T04:23:27.223Z,5.00
2018-06-05T04:25:55.939Z,5.63
2018-06-05T04:28:24.630Z,5.90
2018-06-05T04:30:53.544Z,8.03
2018-06-05T04:33:22.253Z,4.73
2018-06-05T04:35:50.953Z,4.00
2018-06-05T04:38:19.629Z,4.10
2018-06-05T04:40:48.349Z,3.50
2018-06-05T04:43:17.213Z,4.37
2018-06-05T04:45:45.913Z,3.37
2018-06-05T04:48:14.690Z,3.23
2018-06-05T04:50:43.380Z,3.30
2018-06-05T04:53:12.090Z,2.80
2018-06-05T04:55:40.821Z,2.50
2018-06-05T04:58:09.517Z,3.40
2018-06-05T05:00:38.225Z,2.47
2018-06-05T05:03:06.937Z,2.20
2018-06-05T05:05:35.644Z,2.70
2018-06-05T05:08:04.337Z,3.50
2018-06-05T05:10:33.069Z,3.10
2018-06-05T05:13:01.844Z,2.90
2018-06-05T05:15:30.805Z,2.50
2018-06-05T05:17:59.514Z,2.80
2018-06-05T05:20:28.329Z,2.47
2018-06-05T05:22:57.008Z,3.00
2018-06-05T05:25:25.729Z,3.50
2018-06-05T05:27:54.428Z,3.50
2018-06-05T05:30:23.126Z,3.50
2018-06-05T05:32:51.976Z,4.00
2018-06-05T05:35:20.690Z,3.37
2018-06-05T05:37:49.388Z,2.40
2018-06-05T05:40:18.191Z,2.60
2018-06-05T05:42:46.924Z,2.83
2018-06-05T05:45:15.617Z,2.50
2018-06-05T05:47:44.354Z,2.90
2018-06-05T05:50:13.076Z,2.90
2018-06-05T05:52:41.843Z,4.43
2018-06-05T05:55:10.641Z,4.27
2018-06-05T05:57:39.373Z,3.53
2018-06-05T06:00:08.098Z,3.20
2018-06-05T06:02:36.817Z,4.00
2018-06-05T06:05:05.597Z,3.40
2018-06-05T06:07:34.305Z,2.90
2018-06-05T06:10:03.032Z,3.10
2018-06-05T06:12:31.733Z,3.17
2018-06-05T06:15:00.444Z,9.83
2018-06-05T06:17:29.166Z,6.20
2018-06-05T06:19:57.871Z,4.10
2018-06-05T06:22:26.561Z,3.90
2018-06-05T06:24:55.467Z,3.97
2018-06-05T06:27:24.186Z,4.60
2018-06-05T06:29:52.897Z,3.60
2018-06-05T06:32:21.677Z,3.63
2018-06-05T06:34:50.439Z,4.60
2018-06-05T06:37:19.481Z,5.63
2018-06-05T06:39:48.198Z,4.07
2018-06-05T06:42:16.993Z,3.83
2018-06-05T06:44:45.688Z,4.30
2018-06-05T06:47:14.409Z,4.80
2018-06-05T06:49:43.101Z,4.40
2018-06-05T06:52:11.789Z,4.00
2018-06-05T06:54:40.578Z,3.67
2018-06-05T06:57:09.237Z,2.83
2018-06-05T06:59:37.929Z,3.30
2018-06-05T07:02:06.645Z,3.40
2018-06-05T07:04:35.338Z,4.07
2018-06-05T07:07:04.047Z,3.20
2018-06-05T07:09:32.793Z,3.40
2018-06-05T07:12:01.493Z,4.40
2018-06-05T07:14:30.199Z,3.93
2018-06-05T07:16:58.921Z,3.97
2018-06-05T07:19:27.638Z,4.40
2018-06-05T07:21:56.363Z,5.33
2018-06-05T07:24:25.136Z,4.50
2018-06-05T07:26:53.955Z,3.80
2018-06-05T07:29:22.681Z,4.13
2018-06-05T07:31:51.400Z,5.13
2018-06-05T07:34:20.101Z,4.10
2018-06-05T07:36:48.793Z,4.37
2018-06-05T07:39:17.512Z,3.73
2018-06-05T07:41:46.333Z,4.00
2018-06-05T07:44:15.061Z,4.00
2018-06-05T07:46:43.802Z,3.20
2018-06-05T07:49:12.485Z,4.70
2018-06-05T07:51:41.170Z,3.40
2018-06-05T07:54:09.949Z,3.43
2018-06-05T07:56:38.621Z,3.20
2018-06-05T07:59:07.309Z,2.80
2018-06-05T08:01:36.021Z,2.80
2018-06-05T08:04:04.689Z,3.00
2018-06-05T08:06:33.369Z,3.20
2018-06-05T08:09:02.104Z,3.33
2018-06-05T08:11:30.881Z,3.40
2018-06-05T08:13:59.581Z,3.17
2018-06-05T08:16:28.327Z,2.80
2018-06-05T08:18:57.012Z,4.10
2018-06-05T08:21:25.755Z,2.52
2018-06-05T08:23:54.522Z,3.27
2018-06-05T08:26:23.212Z,3.27
2018-06-05T08:28:51.898Z,3.53
2018-06-05T08:31:20.614Z,2.80
2018-06-05T08:33:49.285Z,3.58
2018-06-05T08:36:17.989Z,3.10
2018-06-05T08:38:46.706Z,2.83
2018-06-05T08:41:15.402Z,3.13
2018-06-05T08:43:44.119Z,2.80
2018-06-05T08:46:12.989Z,2.70
2018-06-05T08:48:41.726Z,3.30
2018-06-05T08:51:10.427Z,2.90
2018-06-05T08:53:39.145Z,2.60
2018-06-05T08:56:07.824Z,3.05
2018-06-05T08:58:36.516Z,3.20
2018-06-05T09:01:05.250Z,3.33
2018-06-05T09:03:33.987Z,3.17
2018-06-05T09:06:02.683Z,5.40
2018-06-05T09:08:31.381Z,3.23
2018-06-05T09:11:00.160Z,3.83
2018-06-05T09:13:28.877Z,4.00
2018-06-05T09:15:57.605Z,2.80
2018-06-05T09:18:26.477Z,3.50
2018-06-05T09:20:55.164Z,3.73
2018-06-05T09:23:23.889Z,3.93
2018-06-05T09:25:52.657Z,3.40
2018-06-05T09:28:21.454Z,4.10
2018-06-05T09:30:50.198Z,4.30
2018-06-05T09:33:18.906Z,4.10
2018-06-05T09:35:47.610Z,4.53
2018-06-05T09:38:16.371Z,4.87
2018-06-05T09:40:45.086Z,4.63
2018-06-05T09:43:13.823Z,4.90
2018-06-05T09:45:42.553Z,4.10
2018-06-05T09:48:11.245Z,5.47
2018-06-05T09:50:44.070Z,3.90
2018-06-05T09:53:12.774Z,3.43
2018-06-05T09:55:41.625Z,3.43
2018-06-05T09:58:10.499Z,3.13
2018-06-05T10:00:44.116Z,3.10
2018-06-05T10:03:12.848Z,2.73
2018-06-05T10:05:41.578Z,2.92
2018-06-05T10:08:10.266Z,2.20
2018-06-05T10:10:39.015Z,3.67
2018-06-05T10:13:07.690Z,2.87
2018-06-05T10:15:36.407Z,3.08
2018-06-05T10:18:05.409Z,3.15
2018-06-05T10:20:34.172Z,2.98
2018-06-05T10:23:02.926Z,3.15
2018-06-05T10:25:31.670Z,2.80
2018-06-05T10:28:00.377Z,2.77
2018-06-05T10:30:29.078Z,4.00
2018-06-05T10:32:57.822Z,3.23
2018-06-05T10:35:26.559Z,4.10
2018-06-05T10:37:55.339Z,3.87
2018-06-05T10:40:24.085Z,3.90
2018-06-05T10:42:52.785Z,3.30
2018-06-05T10:45:21.506Z,3.30
2018-06-05T10:47:50.249Z,2.98
2018-06-05T10:50:19.344Z,3.30
2018-06-05T10:52:48.061Z,3.87
2018-06-05T10:55:16.813Z,3.13
2018-06-05T10:57:45.516Z,3.40
2018-06-05T11:00:14.218Z,4.23
2018-06-05T11:02:42.970Z,4.90
2018-06-05T11:05:11.682Z,3.73
2018-06-05T11:07:40.384Z,3.50
2018-06-05T11:10:09.139Z,5.83
2018-06-05T11:12:38.010Z,6.63
2018-06-05T11:15:06.830Z,6.97
2018-06-05T11:17:35.564Z,5.47
2018-06-05T11:20:04.348Z,4.50
2018-06-05T11:22:33.081Z,4.97
2018-06-05T11:25:01.849Z,4.77
2018-06-05T11:27:30.571Z,5.03
2018-06-05T11:29:59.329Z,4.43
2018-06-05T11:32:28.061Z,4.60
2018-06-05T11:34:56.778Z,4.90
2018-06-05T11:37:25.469Z,4.70
2018-06-05T11:39:54.206Z,5.07
2018-06-05T11:42:22.892Z,5.10
2018-06-05T11:44:51.582Z,5.30
2018-06-05T11:47:20.313Z,5.20
2018-06-05T11:49:49.016Z,5.20
2018-06-05T11:52:17.913Z,4.67
2018-06-05T11:54:46.676Z,3.97
2018-06-05T11:57:15.368Z,4.30
2018-06-05T11:59:44.178Z,3.87
2018-06-05T12:02:12.978Z,4.50
2018-06-05T12:04:41.687Z,4.73
2018-06-05T12:07:10.496Z,5.57
2018-06-05T12:09:39.311Z,4.93
2018-06-05T12:12:08.033Z,4.47
2018-06-05T12:14:36.942Z,4.43
2018-06-05T12:17:05.769Z,4.23
2018-06-05T12:19:34.486Z,3.20
2018-06-05T12:22:03.171Z,3.17
2018-06-05T12:24:32.064Z,2.90
2018-06-05T12:27:00.749Z,3.80
2018-06-05T12:29:29.437Z,2.77
2018-06-05T12:31:58.157Z,3.20
2018-06-05T12:34:26.854Z,3.30
2018-06-05T12:36:55.571Z,3.83
2018-06-05T12:39:24.297Z,3.50
2018-06-05T12:41:52.999Z,3.80
2018-06-05T12:44:21.697Z,4.93
2018-06-05T12:46:50.415Z,3.93
2018-06-05T12:49:19.109Z,3.37
2018-06-05T12:51:47.823Z,4.47
2018-06-05T12:54:16.594Z,3.07
2018-06-05T12:56:45.301Z,3.47
2018-06-05T12:59:14.069Z,4.63
2018-06-05T13:01:42.825Z,5.40
2018-06-05T13:04:11.600Z,7.00
2018-06-05T13:06:40.297Z,4.77
2018-06-05T13:09:09.090Z,3.80
2018-06-05T13:11:37.806Z,3.43
2018-06-05T13:14:06.539Z,3.50
2018-06-05T13:16:35.322Z,5.43
2018-06-05T13:19:04.033Z,4.30
2018-06-05T13:21:32.779Z,3.33
2018-06-05T13:24:01.577Z,3.70
2018-06-05T13:26:30.592Z,3.47
2018-06-05T13:28:59.336Z,3.80
2018-06-05T13:31:28.098Z,3.00
2018-06-05T13:33:56.834Z,3.07
2018-06-05T13:36:25.579Z,3.13
2018-06-05T13:38:54.321Z,3.13
2018-06-05T13:41:23.012Z,4.80
2018-06-05T13:43:51.844Z,3.57
2018-06-05T13:46:20.653Z,3.67
2018-06-05T13:48:49.384Z,4.80
2018-06-05T13:51:18.230Z,4.10
2018-06-05T13:53:47.053Z,5.40
2018-06-05T13:56:15.812Z,4.57
2018-06-05T13:58:44.527Z,4.70
2018-06-05T14:01:13.315Z,5.70
2018-06-05T14:03:42.043Z,4.17
2018-06-05T14:06:10.767Z,5.63
2018-06-05T14:08:39.693Z,7.17
2018-06-05T14:11:08.394Z,6.27
2018-06-05T14:13:37.273Z,6.30
2018-06-05T14:16:06.366Z,5.90
2018-06-05T14:18:35.061Z,6.87
2018-06-05T14:21:03.770Z,8.50
2018-06-05T14:23:34.683Z,7.30
2018-06-05T14:26:05.123Z,7.43
2018-06-05T14:28:36.781Z,7.70
2018-06-05T14:31:05.587Z,6.87
2018-06-05T14:33:34.305Z,7.30
2018-06-05T14:36:03.113Z,6.33
2018-06-05T14:38:31.827Z,6.47
2018-06-05T14:41:00.574Z,14.27
2018-06-05T14:43:29.365Z,10.50
2018-06-05T14:45:58.115Z,7.80
2018-06-05T14:48:26.885Z,6.60
2018-06-05T14:50:55.659Z,5.60
2018-06-05T14:53:24.391Z,3.80
2018-06-05T14:55:53.126Z,4.17
2018-06-05T14:58:21.964Z,3.70
2018-06-05T15:00:50.849Z,3.90
2018-06-05T15:03:19.579Z,3.57
2018-06-05T15:05:48.313Z,4.40
2018-06-05T15:08:17.024Z,4.27
2018-06-05T15:10:45.705Z,5.77
2018-06-05T15:13:14.434Z,5.40
2018-06-05T15:15:43.230Z,6.37
2018-06-05T15:18:11.940Z,6.60
2018-06-05T15:20:40.670Z,9.43
2018-06-05T15:23:09.387Z,12.60
2018-06-05T15:25:38.086Z,9.53
2018-06-05T15:28:06.818Z,6.70
2018-06-05T15:30:35.522Z,6.23
2018-06-05T15:33:04.230Z,6.90
2018-06-05T15:35:32.979Z,7.00
2018-06-05T15:38:01.685Z,9.00
2018-06-05T15:40:30.403Z,12.43
2018-06-05T15:42:59.156Z,6.70
2018-06-05T15:45:27.871Z,6.03
2018-06-05T15:47:56.592Z,6.53
2018-06-05T15:50:25.360Z,5.30
2018-06-05T15:52:54.151Z,5.40
2018-06-05T15:55:22.909Z,4.53
2018-06-05T15:57:51.727Z,6.00
2018-06-05T16:00:20.430Z,3.60
2018-06-05T16:02:49.128Z,5.20
2018-06-05T16:05:17.978Z,4.53
2018-06-05T16:07:46.837Z,5.17
2018-06-05T16:10:15.536Z,4.40
2018-06-05T16:12:44.277Z,3.70
2018-06-05T16:15:12.948Z,5.20
2018-06-05T16:17:41.641Z,4.63
2018-06-05T16:20:10.507Z,4.33
2018-06-05T16:22:39.209Z,4.33
2018-06-05T16:25:07.905Z,3.93
2018-06-05T16:27:36.620Z,3.33
2018-06-05T16:30:06.034Z,4.40
2018-06-05T16:32:34.914Z,4.67
2018-06-05T16:35:03.646Z,4.30
2018-06-05T16:37:32.344Z,4.00
2018-06-05T16:40:01.029Z,4.23
2018-06-05T16:42:29.737Z,3.70
2018-06-05T16:44:58.417Z,4.90
2018-06-05T16:47:27.146Z,4.90
2018-06-05T16:49:55.922Z,4.63
2018-06-05T16:52:24.801Z,9.50
2018-06-05T16:54:53.525Z,7.30
2018-06-05T16:57:22.360Z,5.80
2018-06-05T16:59:51.046Z,5.20
2018-06-05T17:02:20.521Z,5.73
2018-06-05T17:04:49.326Z,7.60
2018-06-05T17:07:18.878Z,5.10
2018-06-05T17:09:47.689Z,5.97
2018-06-05T17:12:16.417Z,5.70
2018-06-05T17:14:45.132Z,6.37
2018-06-05T17:17:13.814Z,7.03
2018-06-05T17:19:42.529Z,7.10
2018-06-05T17:22:11.218Z,6.63
2018-06-05T17:24:39.926Z,8.53
2018-06-05T17:27:08.732Z,7.63
2018-06-05T17:29:37.441Z,8.23
2018-06-05T17:32:06.284Z,8.90
2018-06-05T17:34:35.014Z,8.10
2018-06-05T17:37:03.730Z,7.60
2018-06-05T17:39:32.450Z,9.43
2018-06-05T17:42:01.306Z,8.00
2018-06-05T17:44:30.065Z,8.40
2018-06-05T17:46:58.806Z,8.87
2018-06-05T17:49:27.779Z,9.97
2018-06-05T17:51:56.509Z,10.40
2018-06-05T17:54:25.242Z,9.80
2018-06-05T17:56:53.985Z,7.90
2018-06-05T17:59:22.724Z,7.87
2018-06-05T18:01:51.471Z,10.47
2018-06-05T18:04:20.217Z,10.50
2018-06-05T18:06:48.960Z,10.30
2018-06-05T18:09:17.710Z,12.20
2018-06-05T18:11:46.498Z,10.33
2018-06-05T18:14:15.234Z,10.30
2018-06-05T18:16:44.005Z,11.73
2018-06-05T18:19:12.803Z,10.73
2018-06-05T18:21:41.590Z,10.00
2018-06-05T18:24:09.280Z,12.40
2018-06-05T18:26:38.143Z,11.53
2018-06-05T18:29:07.019Z,12.30
2018-06-05T18:31:35.766Z,12.37
2018-06-05T18:34:04.500Z,11.40
2018-06-05T18:36:33.277Z,12.50
2018-06-05T18:39:02.028Z,12.43
2018-06-05T18:41:30.874Z,12.30
2018-06-05T18:43:59.682Z,11.20
2018-06-05T18:46:28.459Z,11.57
2018-06-05T18:48:57.278Z,12.00
2018-06-05T18:51:26.062Z,12.17
2018-06-05T18:53:54.824Z,11.63
2018-06-05T18:56:23.553Z,11.60
2018-06-05T18:58:52.477Z,10.97
2018-06-05T19:01:21.331Z,13.00
2018-06-05T19:03:50.200Z,13.63
2018-06-05T19:06:19.052Z,12.43
2018-06-05T19:08:47.848Z,11.87
2018-06-05T19:11:16.764Z,13.07
2018-06-05T19:13:45.504Z,10.70
2018-06-05T19:16:14.239Z,11.73
2018-06-05T19:18:43.153Z,12.37
2018-06-05T19:21:11.857Z,13.73
2018-06-05T19:23:40.666Z,11.60
2018-06-05T19:26:09.415Z,11.50
2018-06-05T19:28:38.152Z,9.90
2018-06-05T19:31:06.851Z,11.67
2018-06-05T19:33:35.722Z,11.83
2018-06-05T19:36:04.421Z,11.17
2018-06-05T19:38:33.129Z,10.20
2018-06-05T19:41:01.856Z,10.40
2018-06-05T19:43:30.550Z,12.23
2018-06-05T19:45:59.247Z,11.63
2018-06-05T19:48:27.984Z,10.50
2018-06-05T19:50:56.691Z,10.90
2018-06-05T19:53:25.396Z,11.47
2018-06-05T19:55:54.359Z,11.80
2018-06-05T19:58:23.061Z,12.50
2018-06-05T20:00:51.849Z,11.33
2018-06-05T20:03:20.615Z,14.33
2018-06-05T20:05:49.334Z,12.67
2018-06-05T20:08:18.037Z,11.33
2018-06-05T20:10:46.765Z,12.90
2018-06-05T20:13:16.361Z,12.30
2018-06-05T20:15:45.074Z,13.43
2018-06-05T20:18:13.914Z,12.00
2018-06-05T20:20:42.724Z,13.03
2018-06-05T20:23:11.370Z,14.10
2018-06-05T20:25:40.114Z,14.60
2018-06-05T20:28:08.880Z,13.10
2018-06-05T20:30:37.598Z,12.23
2018-06-05T20:33:06.428Z,13.20
2018-06-05T20:35:35.137Z,12.83
2018-06-05T20:38:03.842Z,13.03
2018-06-05T20:40:32.667Z,13.73
2018-06-05T20:43:01.384Z,15.93
2018-06-05T20:45:30.093Z,13.27
2018-06-05T20:47:58.850Z,14.53
2018-06-05T20:50:27.609Z,13.50
2018-06-05T20:52:56.333Z,14.37
2018-06-05T20:55:25.086Z,12.37
2018-06-05T20:57:53.799Z,12.17
2018-06-05T21:00:22.505Z,13.33
2018-06-05T21:02:51.284Z,12.97
2018-06-05T21:05:20.059Z,13.30
2018-06-05T21:07:48.772Z,14.57
2018-06-05T21:10:17.491Z,13.30
2018-06-05T21:12:46.181Z,14.20
2018-06-05T21:15:14.874Z,15.73
2018-06-05T21:17:43.601Z,14.37
2018-06-05T21:20:12.332Z,15.97
2018-06-05T21:22:41.049Z,14.60
2018-06-05T21:25:09.786Z,13.50
2018-06-05T21:27:38.473Z,12.70
2018-06-05T21:30:07.174Z,12.00
2018-06-05T21:32:35.917Z,12.53
2018-06-05T21:35:04.633Z,12.83
2018-06-05T21:37:33.341Z,13.53
2018-06-05T21:40:02.087Z,13.30
2018-06-05T21:42:30.796Z,12.90
2018-06-05T21:44:59.486Z,13.90
2018-06-05T21:47:28.229Z,12.50
2018-06-05T21:49:57.024Z,12.90
2018-06-05T21:52:25.709Z,14.63
2018-06-05T21:54:54.461Z,14.40
2018-06-05T21:57:23.177Z,13.43
2018-06-05T21:59:51.898Z,17.50
2018-06-05T22:02:20.641Z,14.50
2018-06-05T22:04:49.336Z,13.40
2018-06-05T22:07:18.042Z,13.73
2018-06-05T22:09:46.787Z,11.77
2018-06-05T22:12:15.574Z,13.67
2018-06-05T22:14:44.284Z,12.93
2018-06-05T22:17:13.021Z,14.00
2018-06-05T22:19:41.707Z,12.30
2018-06-05T22:22:10.389Z,12.20
2018-06-05T22:24:39.109Z,14.17
2018-06-05T22:27:07.797Z,13.60
2018-06-05T22:29:36.507Z,12.27
2018-06-05T22:32:05.243Z,14.40
2018-06-05T22:34:33.963Z,14.60
2018-06-05T22:37:02.780Z,14.50
2018-06-05T22:39:31.700Z,12.80
2018-06-05T22:42:00.421Z,13.60
2018-06-05T22:44:29.126Z,14.60
2018-06-05T22:46:57.870Z,13.80
2018-06-05T22:49:26.587Z,14.23
2018-06-05T22:51:55.297Z,12.40
2018-06-05T22:54:24.029Z,14.67
2018-06-05T22:56:52.743Z,14.73
2018-06-05T22:59:21.430Z,14.40
2018-06-05T23:01:50.150Z,13.03
2018-06-05T23:04:18.864Z,13.97
2018-06-05T23:06:47.587Z,13.43
2018-06-05T23:09:16.302Z,12.87
2018-06-05T23:11:45.009Z,12.80
2018-06-05T23:14:13.697Z,12.87
2018-06-05T23:16:42.576Z,11.73
2018-06-05T23:19:11.432Z,11.83
2018-06-05T23:21:40.118Z,12.97
2018-06-05T23:24:08.841Z,12.80
2018-06-05T23:26:37.712Z,12.30
2018-06-05T23:29:06.405Z,12.00
2018-06-05T23:31:35.354Z,14.00
2018-06-05T23:34:04.069Z,14.30
2018-06-05T23:36:32.773Z,13.47
2018-06-05T23:39:01.511Z,13.23
2018-06-05T23:41:30.212Z,13.40
2018-06-05T23:43:58.927Z,13.17
2018-06-05T23:46:27.662Z,15.83
2018-06-05T23:48:56.380Z,13.37
2018-06-05T23:51:25.137Z,12.57
2018-06-05T23:53:53.867Z,12.03
2018-06-05T23:56:22.607Z,11.90
2018-06-05T23:58:51.338Z,13.20
